createdAt,value
2023-09-15T00:01:10.227Z,101839.06
2023-09-15T00:03:36.741Z,101832.66
2023-09-15T00:06:03.187Z,101840.56
2023-09-15T00:08:29.818Z,101844.84
2023-09-15T00:10:56.209Z,101849.13
2023-09-15T00:13:22.687Z,101841.84
2023-09-15T00:15:52.010Z,101840.34
2023-09-15T00:18:19.765Z,101842.50
2023-09-15T00:20:46.204Z,101840.34
2023-09-15T00:23:12.596Z,101834.56
2023-09-15T00:25:38.967Z,101838.84
2023-09-15T00:28:05.454Z,101850.38
2023-09-15T00:30:33.810Z,101847.50
2023-09-15T00:33:00.321Z,101851.91
2023-09-15T00:35:29.321Z,101854.66
2023-09-15T00:37:58.783Z,101848.91
2023-09-15T00:40:25.362Z,101848.16
2023-09-15T00:42:52.219Z,101847.41
2023-09-15T00:45:20.763Z,101844.41
2023-09-15T00:47:48.690Z,101846.53
2023-09-15T00:50:15.663Z,101847.28
2023-09-15T00:52:42.149Z,101849.41
2023-09-15T00:55:09.929Z,101835.66
2023-09-15T00:57:38.280Z,101838.66
2023-09-15T01:00:05.159Z,101838.66
2023-09-15T01:02:33.269Z,101842.91
2023-09-15T01:04:59.811Z,101840.00
2023-09-15T01:07:26.200Z,101840.66
2023-09-15T01:09:52.657Z,101838.53
2023-09-15T01:12:19.076Z,101835.66
2023-09-15T01:14:46.676Z,101832.75
2023-09-15T01:17:24.484Z,101839.28
2023-09-15T01:19:56.559Z,101838.41
2023-09-15T01:22:37.430Z,101837.00
2023-09-15T01:25:10.536Z,101833.91
2023-09-15T01:27:48.851Z,101832.38
2023-09-15T01:30:15.323Z,101835.91
2023-09-15T01:32:42.605Z,101831.53
2023-09-15T01:35:09.228Z,101835.91
2023-09-15T01:37:35.651Z,101838.69
2023-09-15T01:40:02.154Z,101840.19
2023-09-15T01:42:29.024Z,101824.38
2023-09-15T01:44:56.352Z,101835.06
2023-09-15T01:47:22.853Z,101834.31
2023-09-15T01:49:50.124Z,101837.94
2023-09-15T01:52:16.692Z,101834.31
2023-09-15T01:54:43.231Z,101837.94
2023-09-15T01:57:09.788Z,101839.34
2023-09-15T01:59:36.235Z,101840.69
2023-09-15T02:02:02.808Z,101835.59
2023-09-15T02:04:29.271Z,101835.72
2023-09-15T02:06:55.771Z,101833.44
2023-09-15T02:09:22.260Z,101832.06
2023-09-15T02:11:48.697Z,101838.47
2023-09-15T02:14:15.167Z,101845.00
2023-09-15T02:16:43.601Z,101842.09
2023-09-15T02:19:10.336Z,101847.13
2023-09-15T02:21:37.182Z,101840.59
2023-09-15T02:24:03.819Z,101842.63
2023-09-15T02:26:30.686Z,101842.00
2023-09-15T02:28:57.099Z,101839.84
2023-09-15T02:31:23.762Z,101845.50
2023-09-15T02:33:50.401Z,101850.53
2023-09-15T02:36:16.825Z,101844.75
2023-09-15T02:38:43.342Z,101852.78
2023-09-15T02:41:09.898Z,101850.53
2023-09-15T02:43:36.307Z,101844.75
2023-09-15T02:46:04.369Z,101836.00
2023-09-15T02:48:31.129Z,101830.22
2023-09-15T02:50:58.315Z,101829.47
2023-09-15T02:53:25.288Z,101818.69
2023-09-15T02:55:55.612Z,101831.63
2023-09-15T02:58:22.216Z,101828.09
2023-09-15T03:00:49.808Z,101824.47
2023-09-15T03:03:16.397Z,101817.19
2023-09-15T03:05:42.898Z,101819.97
2023-09-15T03:08:10.290Z,101815.69
2023-09-15T03:10:36.743Z,101815.69
2023-09-15T03:13:05.289Z,101818.56
2023-09-15T03:15:33.485Z,101809.91
2023-09-15T03:17:59.998Z,101817.09
2023-09-15T03:20:26.456Z,101815.56
2023-09-15T03:22:53.348Z,101816.97
2023-09-15T03:25:20.343Z,101818.47
2023-09-15T03:27:46.846Z,101820.47
2023-09-15T03:30:13.276Z,101813.97
2023-09-15T03:32:39.796Z,101815.50
2023-09-15T03:35:09.385Z,101816.22
2023-09-15T03:37:35.797Z,101815.50
2023-09-15T03:40:03.705Z,101821.25
2023-09-15T03:42:32.286Z,101816.22
2023-09-15T03:44:59.013Z,101824.03
2023-09-15T03:47:25.415Z,101816.84
2023-09-15T03:49:52.199Z,101813.22
2023-09-15T03:52:18.686Z,101823.25
2023-09-15T03:54:45.183Z,101815.38
2023-09-15T03:57:11.577Z,101816.84
2023-09-15T03:59:38.040Z,101819.00
2023-09-15T04:02:08.328Z,101819.63
2023-09-15T04:04:34.847Z,101812.50
2023-09-15T04:07:01.286Z,101816.63
2023-09-15T04:09:27.888Z,101817.91
2023-09-15T04:11:54.869Z,101817.78
2023-09-15T04:14:22.192Z,101823.06
2023-09-15T04:16:49.276Z,101823.78
2023-09-15T04:19:15.755Z,101820.28
2023-09-15T04:21:43.504Z,101826.06
2023-09-15T04:24:09.948Z,101821.03
2023-09-15T04:26:36.382Z,101829.56
2023-09-15T04:29:02.784Z,101830.94
2023-09-15T04:31:29.403Z,101833.63
2023-09-15T04:33:55.924Z,101833.38
2023-09-15T04:36:22.349Z,101833.38
2023-09-15T04:38:49.060Z,101832.84
2023-09-15T04:41:15.686Z,101826.56
2023-09-15T04:43:42.094Z,101825.09
2023-09-15T04:46:08.697Z,101833.72
2023-09-15T04:48:35.190Z,101830.84
2023-09-15T04:51:01.614Z,101836.25
2023-09-15T04:53:29.022Z,101838.09
2023-09-15T04:55:55.751Z,101834.84
2023-09-15T04:58:22.807Z,101835.47
2023-09-15T05:00:49.422Z,101838.47
2023-09-15T05:03:16.003Z,101831.91
2023-09-15T05:05:44.662Z,101831.59
2023-09-15T05:08:11.298Z,101842.06
2023-09-15T05:10:37.704Z,101830.38
2023-09-15T05:13:06.519Z,101832.81
2023-09-15T05:15:35.383Z,101834.47
2023-09-15T05:18:02.866Z,101837.63
2023-09-15T05:20:31.235Z,101836.16
2023-09-15T05:22:57.739Z,101841.91
2023-09-15T05:25:24.223Z,101839.78
2023-09-15T05:27:50.910Z,101838.28
2023-09-15T05:30:17.392Z,101844.19
2023-09-15T05:32:43.872Z,101843.81
2023-09-15T05:35:11.668Z,101838.06
2023-09-15T05:37:38.588Z,101841.50
2023-09-15T05:40:05.275Z,101849.28
2023-09-15T05:42:31.709Z,101850.91
2023-09-15T05:44:58.105Z,101841.34
2023-09-15T05:47:24.566Z,101840.50
2023-09-15T05:49:51.040Z,101841.22
2023-09-15T05:52:18.063Z,101844.28
2023-09-15T05:54:44.472Z,101840.72
2023-09-15T05:57:10.838Z,101847.09
2023-09-15T05:59:37.210Z,101841.69
2023-09-15T06:02:03.591Z,101849.34
2023-09-15T06:04:29.983Z,101847.56
2023-09-15T06:06:56.472Z,101854.72
2023-09-15T06:09:22.924Z,101853.84
2023-09-15T06:11:49.306Z,101847.81
2023-09-15T06:14:15.690Z,101852.41
2023-09-15T06:16:42.135Z,101851.03
2023-09-15T06:19:08.670Z,101849.97
2023-09-15T06:21:35.551Z,101846.66
2023-09-15T06:24:01.979Z,101847.09
2023-09-15T06:26:28.578Z,101845.63
2023-09-15T06:28:57.414Z,101849.78
2023-09-15T06:31:24.361Z,101852.97
2023-09-15T06:33:50.797Z,101855.97
2023-09-15T06:36:17.177Z,101861.50
2023-09-15T06:38:43.607Z,101854.25
2023-09-15T06:41:10.002Z,101850.91
2023-09-15T06:43:37.324Z,101856.50
2023-09-15T06:46:03.852Z,101861.09
2023-09-15T06:48:30.790Z,101856.28
2023-09-15T06:50:57.178Z,101865.06
2023-09-15T06:53:23.600Z,101869.56
2023-09-15T06:55:50.009Z,101858.00
2023-09-15T06:58:16.423Z,101861.72
2023-09-15T07:00:43.527Z,101861.00
2023-09-15T07:03:09.998Z,101852.63
2023-09-15T07:05:39.047Z,101858.41
2023-09-15T07:08:05.422Z,101852.63
2023-09-15T07:10:31.813Z,101851.47
2023-09-15T07:12:58.264Z,101857.34
2023-09-15T07:15:24.668Z,101849.47
2023-09-15T07:17:51.130Z,101850.38
2023-09-15T07:20:17.525Z,101849.34
2023-09-15T07:22:43.933Z,101858.97
2023-09-15T07:25:10.383Z,101855.31
2023-09-15T07:27:36.849Z,101851.91
2023-09-15T07:30:03.249Z,101851.28
2023-09-15T07:32:29.694Z,101855.72
2023-09-15T07:34:56.151Z,101845.56
2023-09-15T07:37:22.632Z,101858.41
2023-09-15T07:39:49.072Z,101863.78
2023-09-15T07:42:15.468Z,101857.47
2023-09-15T07:44:41.960Z,101856.72
2023-09-15T07:47:11.056Z,101854.69
2023-09-15T07:49:37.629Z,101853.94
2023-09-15T07:52:04.528Z,101853.19
2023-09-15T07:54:30.948Z,101847.50
2023-09-15T07:56:57.391Z,101847.72
2023-09-15T07:59:23.817Z,101850.22
2023-09-15T08:01:50.302Z,101847.94
2023-09-15T08:04:17.048Z,101855.88
2023-09-15T08:06:43.533Z,101851.69
2023-09-15T08:09:10.134Z,101848.69
2023-09-15T08:11:38.756Z,101851.69
2023-09-15T08:14:05.204Z,101848.81
2023-09-15T08:16:31.676Z,101852.13
2023-09-15T08:19:00.023Z,101852.13
2023-09-15T08:21:26.573Z,101843.88
2023-09-15T08:23:56.182Z,101844.44
2023-09-15T08:26:23.220Z,101841.72
2023-09-15T08:28:49.642Z,101848.03
2023-09-15T08:31:16.055Z,101845.72
2023-09-15T08:33:42.435Z,101841.16
2023-09-15T08:36:08.813Z,101837.97
2023-09-15T08:38:35.208Z,101842.16
2023-09-15T08:41:10.994Z,101838.22
2023-09-15T08:43:37.392Z,101829.56
2023-09-15T08:46:04.604Z,101829.50
2023-09-15T08:48:31.059Z,101844.63
2023-09-15T08:50:57.467Z,101834.47
2023-09-15T08:53:23.880Z,101834.25
2023-09-15T08:55:50.257Z,101831.25
2023-09-15T08:58:16.714Z,101823.03
2023-09-15T09:00:43.606Z,101826.34
2023-09-15T09:03:13.814Z,101833.41
2023-09-15T09:05:40.408Z,101824.97
2023-09-15T09:08:06.800Z,101830.75
2023-09-15T09:10:33.220Z,101832.03
2023-09-15T09:12:59.671Z,101831.16
2023-09-15T09:15:26.082Z,101828.47
2023-09-15T09:17:52.558Z,101833.19
2023-09-15T09:20:25.673Z,101832.13
2023-09-15T09:22:52.163Z,101823.47
2023-09-15T09:25:34.908Z,101820.28
2023-09-15T09:28:01.500Z,101820.91
2023-09-15T09:30:30.574Z,101820.69
2023-09-15T09:32:57.781Z,101829.13
2023-09-15T09:35:24.287Z,101816.28
2023-09-15T09:37:50.738Z,101817.47
2023-09-15T09:40:19.222Z,101808.13
2023-09-15T09:42:45.973Z,101812.63
2023-09-15T09:45:12.385Z,101815.41
2023-09-15T09:47:38.816Z,101812.00
2023-09-15T09:50:06.306Z,101806.75
2023-09-15T09:52:32.708Z,101806.53
2023-09-15T09:55:01.772Z,101806.97
2023-09-15T09:57:28.202Z,101804.91
2023-09-15T09:59:55.253Z,101805.66
2023-09-15T10:02:21.814Z,101798.19
2023-09-15T10:04:48.294Z,101796.72
2023-09-15T10:07:15.062Z,101799.41
2023-09-15T10:09:42.484Z,101789.34
2023-09-15T10:12:09.819Z,101788.38
2023-09-15T10:14:36.230Z,101792.44
2023-09-15T10:17:02.981Z,101782.06
2023-09-15T10:19:29.344Z,101785.19
2023-09-15T10:21:55.796Z,101782.50
2023-09-15T10:24:22.333Z,101780.31
2023-09-15T10:26:48.751Z,101777.50
2023-09-15T10:29:15.164Z,101772.19
2023-09-15T10:31:42.505Z,101769.38
2023-09-15T10:34:08.934Z,101777.66
2023-09-15T10:36:35.486Z,101766.72
2023-09-15T10:39:12.058Z,101759.56
2023-09-15T10:41:38.453Z,101764.81
2023-09-15T10:44:04.840Z,101750.50
2023-09-15T10:46:37.748Z,101755.88
2023-09-15T10:49:16.669Z,101755.50
2023-09-15T10:51:59.633Z,101745.09
2023-09-15T10:54:26.797Z,101741.00
2023-09-15T10:56:53.202Z,101738.94
2023-09-15T10:59:19.566Z,101738.94
2023-09-15T11:01:45.948Z,101731.78
2023-09-15T11:04:13.838Z,101729.53
2023-09-15T11:06:40.499Z,101719.13
2023-09-15T11:09:07.248Z,101717.97
2023-09-15T11:11:33.869Z,101729.13
2023-09-15T11:14:01.011Z,101726.97
2023-09-15T11:16:31.202Z,101725.84
2023-09-15T11:19:00.437Z,101722.66
2023-09-15T11:21:27.000Z,101724.38
2023-09-15T11:23:53.433Z,101725.31
2023-09-15T11:26:27.843Z,101725.34
2023-09-15T11:28:55.439Z,101725.38
2023-09-15T11:31:21.965Z,101722.31
2023-09-15T11:33:48.424Z,101705.81
2023-09-15T11:36:17.973Z,101705.97
2023-09-15T11:38:44.894Z,101709.34
2023-09-15T11:41:13.827Z,101707.88
2023-09-15T11:43:40.439Z,101705.59
2023-09-15T11:46:08.863Z,101719.13
2023-09-15T11:48:39.456Z,101712.88
2023-09-15T11:51:12.051Z,101708.03
2023-09-15T11:53:38.569Z,101706.53
2023-09-15T11:56:05.429Z,101700.47
2023-09-15T11:58:32.434Z,101703.47
2023-09-15T12:00:58.884Z,101706.72
2023-09-15T12:03:26.187Z,101701.75
2023-09-15T12:05:52.779Z,101698.66
2023-09-15T12:08:19.523Z,101689.97
2023-09-15T12:10:49.571Z,101686.34
2023-09-15T12:13:21.134Z,101686.56
2023-09-15T12:15:48.425Z,101682.09
2023-09-15T12:18:14.919Z,101680.22
2023-09-15T12:20:41.782Z,101676.91
2023-09-15T12:23:14.520Z,101677.84
2023-09-15T12:25:41.383Z,101663.63
2023-09-15T12:28:07.777Z,101659.66
2023-09-15T12:30:34.947Z,101660.50
2023-09-15T12:33:01.371Z,101654.72
2023-09-15T12:35:28.165Z,101646.13
2023-09-15T12:37:55.340Z,101649.28
2023-09-15T12:40:23.425Z,101642.56
2023-09-15T12:42:52.384Z,101644.53
2023-09-15T12:45:18.864Z,101646.47
2023-09-15T12:47:45.314Z,101639.22
2023-09-15T12:50:13.778Z,101635.50
2023-09-15T12:52:40.461Z,101639.03
2023-09-15T12:55:07.171Z,101641.00
2023-09-15T12:57:33.626Z,101636.16
2023-09-15T13:00:00.053Z,101627.81
2023-09-15T13:02:27.602Z,101639.00
2023-09-15T13:04:54.177Z,101621.47
2023-09-15T13:07:20.729Z,101635.94
2023-09-15T13:09:47.173Z,101626.03
2023-09-15T13:12:14.142Z,101621.56
2023-09-15T13:14:40.550Z,101617.16
2023-09-15T13:17:06.999Z,101618.47
2023-09-15T13:19:33.560Z,101618.97
2023-09-15T13:21:59.932Z,101614.28
2023-09-15T13:24:26.412Z,101612.88
2023-09-15T13:26:53.551Z,101602.63
2023-09-15T13:29:20.104Z,101591.81
2023-09-15T13:31:46.548Z,101586.84
2023-09-15T13:34:12.956Z,101589.56
2023-09-15T13:36:40.073Z,101587.63
2023-09-15T13:39:08.838Z,101582.50
2023-09-15T13:41:35.585Z,101589.03
2023-09-15T13:44:02.052Z,101586.22
2023-09-15T13:46:28.464Z,101582.25
2023-09-15T13:48:54.893Z,101577.69
2023-09-15T13:51:28.954Z,101565.41
2023-09-15T13:53:59.046Z,101565.50
2023-09-15T13:56:25.459Z,101566.88
2023-09-15T13:58:54.636Z,101568.44
2023-09-15T14:01:21.718Z,101563.72
2023-09-15T14:03:48.910Z,101566.19
2023-09-15T14:06:18.122Z,101569.75
2023-09-15T14:08:44.537Z,101563.94
2023-09-15T14:11:11.524Z,101565.06
2023-09-15T14:13:37.910Z,101566.78
2023-09-15T14:16:04.385Z,101563.16
2023-09-15T14:18:30.851Z,101566.03
2023-09-15T14:20:59.082Z,101565.38
2023-09-15T14:23:28.430Z,101561.50
2023-09-15T14:25:54.946Z,101560.63
2023-09-15T14:28:21.355Z,101559.53
2023-09-15T14:30:51.172Z,101564.75
2023-09-15T14:33:17.637Z,101570.88
2023-09-15T14:35:44.024Z,101550.47
2023-09-15T14:38:10.394Z,101540.66
2023-09-15T14:40:36.884Z,101549.41
2023-09-15T14:43:03.843Z,101543.63
2023-09-15T14:45:30.294Z,101535.59
2023-09-15T14:48:04.220Z,101538.00
2023-09-15T14:50:31.759Z,101531.66
2023-09-15T14:53:01.237Z,101530.31
2023-09-15T14:55:27.660Z,101527.78
2023-09-15T14:57:54.068Z,101525.19
2023-09-15T15:00:20.475Z,101525.63
2023-09-15T15:02:46.968Z,101521.16
2023-09-15T15:05:13.384Z,101527.19
2023-09-15T15:07:39.797Z,101527.75
2023-09-15T15:10:06.412Z,101529.06
2023-09-15T15:12:33.417Z,101527.75
2023-09-15T15:14:59.908Z,101520.56
2023-09-15T15:17:26.564Z,101512.53
2023-09-15T15:19:53.036Z,101521.72
2023-09-15T15:22:19.405Z,101525.69
2023-09-15T15:24:45.935Z,101522.97
2023-09-15T15:27:13.538Z,101525.91
2023-09-15T15:29:42.144Z,101530.09
2023-09-15T15:32:08.594Z,101518.19
2023-09-15T15:34:35.024Z,101525.44
2023-09-15T15:37:02.120Z,101511.66
2023-09-15T15:39:28.738Z,101523.63
2023-09-15T15:41:55.428Z,101520.31
2023-09-15T15:44:22.534Z,101523.19
2023-09-15T15:46:49.541Z,101514.03
2023-09-15T15:49:16.704Z,101514.38
2023-09-15T15:51:43.216Z,101513.38
2023-09-15T15:54:09.845Z,101518.91
2023-09-15T15:56:36.235Z,101507.44
2023-09-15T15:59:02.704Z,101495.50
2023-09-15T16:01:29.143Z,101499.16
2023-09-15T16:03:55.784Z,101498.56
2023-09-15T16:06:22.241Z,101494.13
2023-09-15T16:08:48.938Z,101503.34
2023-09-15T16:11:15.601Z,101496.91
2023-09-15T16:13:41.965Z,101500.16
2023-09-15T16:16:08.421Z,101497.16
2023-09-15T16:18:34.985Z,101495.53
2023-09-15T16:21:01.483Z,101496.81
2023-09-15T16:23:27.894Z,101502.38
2023-09-15T16:25:54.467Z,101503.66
2023-09-15T16:28:20.918Z,101502.09
2023-09-15T16:30:47.505Z,101508.53
2023-09-15T16:33:14.074Z,101500.41
2023-09-15T16:35:41.418Z,101494.44
2023-09-15T16:38:07.812Z,101510.28
2023-09-15T16:40:35.825Z,101505.84
2023-09-15T16:43:02.515Z,101505.09
2023-09-15T16:45:30.508Z,101498.47
2023-09-15T16:47:57.022Z,101498.66
2023-09-15T16:50:23.500Z,101501.38
2023-09-15T16:52:49.992Z,101496.81
2023-09-15T16:55:19.322Z,101503.34
2023-09-15T16:57:45.788Z,101496.91
2023-09-15T17:00:12.450Z,101498.41
2023-09-15T17:02:39.377Z,101496.75
2023-09-15T17:05:06.337Z,101493.75
2023-09-15T17:07:33.489Z,101498.03
2023-09-15T17:10:01.833Z,101508.03
2023-09-15T17:12:28.276Z,101506.28
2023-09-15T17:14:54.684Z,101520.25
2023-09-15T17:17:21.160Z,101515.88
2023-09-15T17:19:47.579Z,101517.84
2023-09-15T17:22:14.309Z,101518.31
2023-09-15T17:24:41.836Z,101513.19
2023-09-15T17:27:08.365Z,101508.47
2023-09-15T17:29:34.739Z,101510.59
2023-09-15T17:32:01.200Z,101520.66
2023-09-15T17:34:27.666Z,101514.97
2023-09-15T17:36:54.081Z,101515.06
2023-09-15T17:39:20.526Z,101522.72
2023-09-15T17:41:46.929Z,101519.19
2023-09-15T17:44:14.438Z,101516.38
2023-09-15T17:46:40.913Z,101527.16
2023-09-15T17:49:07.704Z,101515.63
2023-09-15T17:51:34.261Z,101523.63
2023-09-15T17:54:00.698Z,101530.16
2023-09-15T17:56:27.085Z,101532.41
2023-09-15T17:58:53.435Z,101524.47
2023-09-15T18:01:19.839Z,101534.72
2023-09-15T18:03:49.014Z,101522.50
2023-09-15T18:06:22.301Z,101526.03
2023-09-15T18:08:48.988Z,101523.81
2023-09-15T18:11:15.745Z,101525.22
2023-09-15T18:13:42.193Z,101524.38
2023-09-15T18:16:08.697Z,101527.94
2023-09-15T18:18:35.262Z,101532.31
2023-09-15T18:21:01.697Z,101532.22
2023-09-15T18:23:29.011Z,101540.88
2023-09-15T18:25:55.395Z,101541.50
2023-09-15T18:28:22.509Z,101536.50
2023-09-15T18:30:49.104Z,101539.31
2023-09-15T18:33:15.819Z,101534.91
2023-09-15T18:35:42.338Z,101540.69
2023-09-15T18:38:08.970Z,101537.78
2023-09-15T18:40:37.272Z,101537.06
2023-09-15T18:43:03.727Z,101529.66
2023-09-15T18:45:30.221Z,101535.34
2023-09-15T18:47:56.817Z,101536.09
2023-09-15T18:50:23.292Z,101536.09
2023-09-15T18:52:49.682Z,101536.09
2023-09-15T18:55:16.059Z,101528.84
2023-09-15T18:57:42.564Z,101530.13
2023-09-15T19:00:09.359Z,101532.38
2023-09-15T19:02:37.572Z,101530.13
2023-09-15T19:05:06.853Z,101527.22
2023-09-15T19:07:33.233Z,101525.09
2023-09-15T19:10:00.940Z,101534.41
2023-09-15T19:12:27.634Z,101525.75
2023-09-15T19:14:54.065Z,101528.66
2023-09-15T19:17:20.481Z,101532.91
2023-09-15T19:19:46.868Z,101529.94
2023-09-15T19:22:13.267Z,101535.69
2023-09-15T19:24:39.713Z,101526.97
2023-09-15T19:27:07.347Z,101532.75
2023-09-15T19:29:34.203Z,101529.84
2023-09-15T19:32:00.636Z,101525.47
2023-09-15T19:34:27.047Z,101528.25
2023-09-15T19:36:53.473Z,101525.38
2023-09-15T19:39:19.941Z,101534.13
2023-09-15T19:41:46.408Z,101518.09
2023-09-15T19:44:15.099Z,101522.47
2023-09-15T19:46:41.522Z,101519.59
2023-09-15T19:49:07.909Z,101518.75
2023-09-15T19:51:34.364Z,101517.28
2023-09-15T19:54:00.812Z,101520.91
2023-09-15T19:56:27.214Z,101510.72
2023-09-15T19:58:53.583Z,101512.25
2023-09-15T20:01:20.169Z,101516.50
2023-09-15T20:03:47.817Z,101523.69
2023-09-15T20:06:14.220Z,101520.06
2023-09-15T20:08:40.620Z,101520.81
2023-09-15T20:11:07.020Z,101522.22
2023-09-15T20:13:33.602Z,101525.09
2023-09-15T20:16:00.007Z,101521.44
2023-09-15T20:18:26.497Z,101525.75
2023-09-15T20:20:55.980Z,101516.34
2023-09-15T20:23:22.413Z,101525.00
2023-09-15T20:25:49.032Z,101517.81
2023-09-15T20:28:17.229Z,101526.38
2023-09-15T20:30:44.283Z,101529.16
2023-09-15T20:33:11.085Z,101526.28
2023-09-15T20:35:39.582Z,101524.91
2023-09-15T20:38:06.730Z,101534.94
2023-09-15T20:40:33.304Z,101537.81
2023-09-15T20:42:59.896Z,101533.47
2023-09-15T20:45:26.896Z,101534.94
2023-09-15T20:47:54.529Z,101527.78
2023-09-15T20:50:21.094Z,101527.69
2023-09-15T20:52:47.677Z,101533.38
2023-09-15T20:55:14.082Z,101529.00
2023-09-15T20:57:40.504Z,101524.69
2023-09-15T21:00:07.998Z,101529.75
2023-09-15T21:02:36.404Z,101522.47
2023-09-15T21:05:06.872Z,101534.66
2023-09-15T21:07:33.293Z,101534.66
2023-09-15T21:10:01.555Z,101530.28
2023-09-15T21:12:28.052Z,101539.03
2023-09-15T21:14:54.519Z,101528.81
2023-09-15T21:17:21.111Z,101528.06
2023-09-15T21:19:47.528Z,101520.03
2023-09-15T21:22:14.609Z,101521.41
2023-09-15T21:24:41.177Z,101524.22
2023-09-15T21:27:07.680Z,101522.81
2023-09-15T21:29:34.076Z,101525.81
2023-09-15T21:32:00.452Z,101521.31
2023-09-15T21:34:26.851Z,101522.72
2023-09-15T21:36:53.274Z,101516.94
2023-09-15T21:39:20.280Z,101522.72
2023-09-15T21:41:46.712Z,101527.03
2023-09-15T21:44:13.102Z,101524.13
2023-09-15T21:46:39.559Z,101525.63
2023-09-15T21:49:06.111Z,101525.63
2023-09-15T21:51:32.594Z,101524.88
2023-09-15T21:53:59.005Z,101528.41
2023-09-15T21:56:27.841Z,101526.16
2023-09-15T21:58:57.004Z,101522.63
2023-09-15T22:01:24.078Z,101528.41
2023-09-15T22:03:51.529Z,101528.97
2023-09-15T22:06:18.141Z,101525.31
2023-09-15T22:08:44.640Z,101518.69
2023-09-15T22:11:11.461Z,101523.72
2023-09-15T22:13:38.004Z,101518.06
2023-09-15T22:16:04.696Z,101514.44
2023-09-15T22:18:31.621Z,101515.06
2023-09-15T22:21:01.496Z,101524.47
2023-09-15T22:23:28.053Z,101520.75
2023-09-15T22:25:54.439Z,101519.28
2023-09-15T22:28:22.721Z,101519.81
2023-09-15T22:30:49.248Z,101513.50
2023-09-15T22:33:15.940Z,101517.13
2023-09-15T22:35:42.727Z,101506.22
2023-09-15T22:38:09.149Z,101514.78
2023-09-15T22:40:35.541Z,101512.00
2023-09-15T22:43:06.047Z,101512.00
2023-09-15T22:45:33.711Z,101509.00
2023-09-15T22:48:00.347Z,101504.75
2023-09-15T22:50:27.274Z,101515.53
2023-09-15T22:52:53.996Z,101503.22
2023-09-15T22:55:24.589Z,101510.41
2023-09-15T22:57:51.108Z,101501.00
2023-09-15T23:00:17.990Z,101507.53
2023-09-15T23:02:46.878Z,101499.50
2023-09-15T23:05:13.267Z,101499.50
2023-09-15T23:07:40.214Z,101488.69
2023-09-15T23:10:07.265Z,101500.25
2023-09-15T23:12:33.740Z,101500.81
2023-09-15T23:15:00.163Z,101495.78
2023-09-15T23:17:27.090Z,101500.81
2023-09-15T23:19:55.637Z,101500.81
2023-09-15T23:22:22.108Z,101487.13
2023-09-15T23:24:49.124Z,101488.53
2023-09-15T23:27:15.629Z,101492.06
2023-09-15T23:29:41.999Z,101494.09
2023-09-15T23:32:08.420Z,101491.13
2023-09-15T23:34:34.790Z,101493.91
2023-09-15T23:37:01.191Z,101493.91
2023-09-15T23:39:27.604Z,101493.16
2023-09-15T23:41:54.691Z,101479.38
2023-09-15T23:44:21.102Z,101485.69
2023-09-15T23:46:48.786Z,101482.16
2023-09-15T23:49:15.197Z,101487.72
2023-09-15T23:51:41.651Z,101486.44
2023-09-15T23:54:08.314Z,101484.94
2023-09-15T23:56:34.691Z,101483.44
2023-09-15T23:59:01.070Z,101490.59
